createdAt,value
2022-10-06T00:01:30.952Z,100.00
2022-10-06T00:03:57.251Z,100.00
2022-10-06T00:06:23.522Z,100.00
2022-10-06T00:08:49.825Z,100.00
2022-10-06T00:11:17.161Z,100.00
2022-10-06T00:13:43.939Z,100.00
2022-10-06T00:16:18.172Z,100.00
2022-10-06T00:18:44.606Z,100.00
2022-10-06T00:21:10.895Z,100.00
2022-10-06T00:23:37.184Z,100.00
2022-10-06T00:26:04.128Z,100.00
2022-10-06T00:28:30.755Z,100.00
2022-10-06T00:31:00.510Z,100.00
2022-10-06T00:33:26.815Z,100.00
2022-10-06T00:35:57.152Z,100.00
2022-10-06T00:38:23.637Z,100.00
2022-10-06T00:40:50.762Z,100.00
2022-10-06T00:43:35.543Z,100.00
2022-10-06T00:46:02.054Z,100.00
2022-10-06T00:48:29.052Z,100.00
2022-10-06T00:50:57.575Z,100.00
2022-10-06T00:53:27.457Z,100.00
2022-10-06T00:55:54.418Z,100.00
2022-10-06T00:58:20.905Z,100.00
2022-10-06T01:00:49.300Z,100.00
2022-10-06T01:03:17.322Z,100.00
2022-10-06T01:05:46.683Z,100.00
2022-10-06T01:08:13.343Z,100.00
2022-10-06T01:10:39.625Z,100.00
2022-10-06T01:13:06.567Z,100.00
2022-10-06T01:15:34.748Z,100.00
2022-10-06T01:18:04.140Z,100.00
2022-10-06T01:20:30.803Z,100.00
2022-10-06T01:23:01.627Z,100.00
2022-10-06T01:25:28.294Z,100.00
2022-10-06T01:27:55.172Z,100.00
2022-10-06T01:30:25.463Z,100.00
2022-10-06T01:32:51.833Z,100.00
2022-10-06T01:35:18.237Z,100.00
2022-10-06T01:37:44.475Z,100.00
2022-10-06T01:40:10.844Z,100.00
2022-10-06T01:42:37.477Z,100.00
2022-10-06T01:45:04.486Z,100.00
2022-10-06T01:47:31.026Z,100.00
2022-10-06T01:49:57.764Z,100.00
2022-10-06T01:52:24.027Z,100.00
2022-10-06T01:54:50.269Z,100.00
2022-10-06T01:57:16.541Z,100.00
2022-10-06T01:59:43.165Z,100.00
2022-10-06T02:02:09.407Z,100.00
2022-10-06T02:04:35.649Z,100.00
2022-10-06T02:07:02.133Z,100.00
2022-10-06T02:09:28.392Z,100.00
2022-10-06T02:11:54.649Z,100.00
2022-10-06T02:14:20.905Z,100.00
2022-10-06T02:16:47.196Z,100.00
2022-10-06T02:19:13.447Z,100.00
2022-10-06T02:21:39.940Z,100.00
2022-10-06T02:24:06.319Z,100.00
2022-10-06T02:26:32.621Z,100.00
2022-10-06T02:28:58.973Z,100.00
2022-10-06T02:31:25.332Z,100.00
2022-10-06T02:33:51.794Z,100.00
2022-10-06T02:36:18.082Z,100.00
2022-10-06T02:38:44.461Z,100.00
2022-10-06T02:41:11.080Z,100.00
2022-10-06T02:43:37.737Z,100.00
2022-10-06T02:46:06.161Z,100.00
2022-10-06T02:48:33.226Z,100.00
2022-10-06T02:51:01.168Z,100.00
2022-10-06T02:53:28.057Z,100.00
2022-10-06T02:56:07.994Z,100.00
2022-10-06T02:58:34.278Z,100.00
2022-10-06T03:01:01.355Z,100.00
2022-10-06T03:03:27.666Z,100.00
2022-10-06T03:06:01.090Z,100.00
2022-10-06T03:08:27.743Z,100.00
2022-10-06T03:10:59.489Z,100.00
2022-10-06T03:13:25.870Z,100.00
2022-10-06T03:15:52.175Z,100.00
2022-10-06T03:18:18.461Z,100.00
2022-10-06T03:20:44.731Z,100.00
2022-10-06T03:23:13.545Z,100.00
2022-10-06T03:25:40.042Z,100.00
2022-10-06T03:28:06.350Z,100.00
2022-10-06T03:30:32.651Z,100.00
2022-10-06T03:33:01.591Z,100.00
2022-10-06T03:35:27.868Z,100.00
2022-10-06T03:37:54.153Z,100.00
2022-10-06T03:40:20.556Z,100.00
2022-10-06T03:42:46.799Z,100.00
2022-10-06T03:45:13.077Z,100.00
2022-10-06T03:47:39.340Z,100.00
2022-10-06T03:50:07.159Z,100.00
2022-10-06T03:52:33.851Z,100.00
2022-10-06T03:55:00.101Z,100.00
2022-10-06T03:57:26.422Z,100.00
2022-10-06T03:59:52.744Z,100.00
2022-10-06T04:02:19.134Z,100.00
2022-10-06T04:04:45.464Z,100.00
2022-10-06T04:07:11.715Z,100.00
2022-10-06T04:09:37.994Z,100.00
2022-10-06T04:12:04.292Z,100.00
2022-10-06T04:14:30.576Z,100.00
2022-10-06T04:16:57.599Z,100.00
2022-10-06T04:19:24.829Z,100.00
2022-10-06T04:21:51.083Z,100.00
2022-10-06T04:24:18.404Z,100.00
2022-10-06T04:26:46.327Z,100.00
2022-10-06T04:29:14.166Z,100.00
2022-10-06T04:31:41.215Z,100.00
2022-10-06T04:34:08.125Z,100.00
2022-10-06T04:36:35.819Z,100.00
2022-10-06T04:39:03.381Z,100.00
2022-10-06T04:41:34.328Z,100.00
2022-10-06T04:44:01.046Z,100.00
2022-10-06T04:46:42.754Z,100.00
2022-10-06T04:49:14.744Z,100.00
2022-10-06T04:51:44.186Z,100.00
2022-10-06T04:54:10.441Z,100.00
2022-10-06T04:56:36.766Z,100.00
2022-10-06T04:59:03.218Z,100.00
2022-10-06T05:01:33.797Z,100.00
2022-10-06T05:04:01.003Z,100.00
2022-10-06T05:06:41.063Z,100.00
2022-10-06T05:09:09.222Z,100.00
2022-10-06T05:11:35.559Z,100.00
2022-10-06T05:14:01.832Z,100.00
2022-10-06T05:16:29.316Z,100.00
2022-10-06T05:18:55.935Z,100.00
2022-10-06T05:21:25.174Z,100.00
2022-10-06T05:23:51.721Z,100.00
2022-10-06T05:26:19.764Z,100.00
2022-10-06T05:28:46.071Z,100.00
2022-10-06T05:31:16.992Z,100.00
2022-10-06T05:33:43.311Z,100.00
2022-10-06T05:36:14.025Z,100.00
2022-10-06T05:38:40.532Z,100.00
2022-10-06T05:41:08.059Z,100.00
2022-10-06T05:43:34.708Z,100.00
2022-10-06T05:46:02.718Z,100.00
2022-10-06T05:48:29.831Z,100.00
2022-10-06T05:51:07.064Z,100.00
2022-10-06T05:53:35.293Z,100.00
2022-10-06T05:56:06.147Z,100.00
2022-10-06T05:58:32.987Z,100.00
2022-10-06T06:01:13.316Z,100.00
2022-10-06T06:03:40.500Z,100.00
2022-10-06T06:06:18.970Z,100.00
2022-10-06T06:08:45.695Z,100.00
2022-10-06T06:11:12.048Z,100.00
2022-10-06T06:13:38.334Z,100.00
2022-10-06T06:16:06.140Z,100.00
2022-10-06T06:18:36.625Z,100.00
2022-10-06T06:21:04.226Z,100.00
2022-10-06T06:23:31.747Z,100.00
2022-10-06T06:26:02.690Z,100.00
2022-10-06T06:28:30.663Z,100.00
2022-10-06T06:31:02.512Z,100.00
2022-10-06T06:33:29.583Z,100.00
2022-10-06T06:35:55.831Z,100.00
2022-10-06T06:38:22.091Z,100.00
2022-10-06T06:40:48.352Z,100.00
2022-10-06T06:43:14.724Z,100.00
2022-10-06T06:45:40.994Z,100.00
2022-10-06T06:48:11.658Z,100.00
2022-10-06T06:50:37.901Z,100.00
2022-10-06T06:53:04.180Z,100.00
2022-10-06T06:55:30.536Z,100.00
2022-10-06T06:57:56.831Z,100.00
2022-10-06T07:00:23.492Z,100.00
2022-10-06T07:02:56.101Z,100.00
2022-10-06T07:05:22.548Z,100.00
2022-10-06T07:07:48.799Z,100.00
2022-10-06T07:10:15.053Z,100.00
2022-10-06T07:12:43.283Z,100.00
2022-10-06T07:15:28.293Z,100.00
2022-10-06T07:18:13.125Z,100.00
2022-10-06T07:20:57.879Z,100.00
2022-10-06T07:23:43.253Z,100.00
2022-10-06T07:26:09.530Z,100.00
2022-10-06T07:28:35.952Z,100.00
2022-10-06T07:31:02.400Z,100.00
2022-10-06T07:33:29.240Z,100.00
2022-10-06T07:35:55.548Z,100.00
2022-10-06T07:38:25.816Z,100.00
2022-10-06T07:41:17.749Z,100.00
2022-10-06T07:43:42.781Z,100.00
2022-10-06T07:46:10.142Z,100.00
2022-10-06T07:48:38.017Z,100.00
2022-10-06T07:51:07.041Z,100.00
2022-10-06T07:53:33.696Z,100.00
2022-10-06T07:56:05.013Z,100.00
2022-10-06T07:58:32.195Z,100.00
2022-10-06T08:01:04.801Z,100.00
2022-10-06T08:03:31.160Z,100.00
2022-10-06T08:05:58.470Z,100.00
2022-10-06T08:08:25.006Z,100.00
2022-10-06T08:10:55.288Z,100.00
2022-10-06T08:13:22.032Z,100.00
2022-10-06T08:15:49.984Z,100.00
2022-10-06T08:18:41.042Z,100.00
2022-10-06T08:21:39.515Z,100.00
2022-10-06T08:24:06.129Z,100.00
2022-10-06T08:26:33.186Z,100.00
2022-10-06T08:29:03.002Z,100.00
2022-10-06T08:31:30.177Z,100.00
2022-10-06T08:33:57.236Z,100.00
2022-10-06T08:36:29.772Z,100.00
2022-10-06T08:38:57.581Z,100.00
2022-10-06T08:41:27.200Z,100.00
2022-10-06T08:43:56.712Z,100.00
2022-10-06T08:46:24.875Z,100.00
2022-10-06T08:48:51.364Z,100.00
2022-10-06T08:51:33.773Z,100.00
2022-10-06T08:54:29.797Z,100.00
2022-10-06T08:56:56.240Z,100.00
2022-10-06T08:59:22.692Z,100.00
2022-10-06T09:01:51.047Z,100.00
2022-10-06T09:04:28.921Z,100.00
2022-10-06T09:07:07.819Z,100.00
2022-10-06T09:09:45.548Z,100.00
2022-10-06T09:12:14.652Z,100.00
2022-10-06T09:15:06.284Z,100.00
2022-10-06T09:17:37.579Z,100.00
2022-10-06T09:20:10.970Z,100.00
2022-10-06T09:22:37.589Z,100.00
2022-10-06T09:25:17.514Z,100.00
2022-10-06T09:27:45.610Z,100.00
2022-10-06T09:30:12.756Z,100.00
2022-10-06T09:32:43.532Z,100.00
2022-10-06T09:35:29.140Z,100.00
2022-10-06T09:37:57.135Z,100.00
2022-10-06T09:40:29.198Z,100.00
2022-10-06T09:42:55.993Z,100.00
2022-10-06T09:45:25.856Z,100.00
2022-10-06T09:47:52.135Z,100.00
2022-10-06T09:50:23.649Z,100.00
2022-10-06T09:53:03.190Z,100.00
2022-10-06T09:55:29.469Z,100.00
2022-10-06T09:57:57.140Z,100.00
2022-10-06T10:00:27.806Z,100.00
2022-10-06T10:03:02.744Z,100.00
2022-10-06T10:05:30.392Z,100.00
2022-10-06T10:08:15.619Z,100.00
2022-10-06T10:10:41.877Z,100.00
2022-10-06T10:13:22.160Z,100.00
2022-10-06T10:15:59.536Z,100.00
2022-10-06T10:18:28.862Z,100.00
2022-10-06T10:21:06.043Z,100.00
2022-10-06T10:23:36.210Z,100.00
2022-10-06T10:26:05.387Z,100.00
2022-10-06T10:28:39.329Z,100.00
2022-10-06T10:31:08.556Z,100.00
2022-10-06T10:33:59.526Z,100.00
2022-10-06T10:36:38.647Z,100.00
2022-10-06T10:39:07.090Z,100.00
2022-10-06T10:41:40.800Z,100.00
2022-10-06T10:44:10.882Z,100.00
2022-10-06T10:46:44.689Z,100.00
2022-10-06T10:49:29.895Z,100.00
2022-10-06T10:51:56.318Z,100.00
2022-10-06T10:54:28.364Z,100.00
2022-10-06T10:56:54.636Z,100.00
2022-10-06T10:59:24.313Z,100.00
2022-10-06T11:01:50.581Z,100.00
2022-10-06T11:04:16.867Z,100.00
2022-10-06T11:06:54.207Z,100.00
2022-10-06T11:09:31.110Z,100.00
2022-10-06T11:12:06.519Z,100.00
2022-10-06T11:14:51.408Z,100.00
2022-10-06T11:17:33.097Z,100.00
2022-10-06T11:19:59.341Z,100.00
2022-10-06T11:22:30.724Z,100.00
2022-10-06T11:25:22.014Z,100.00
2022-10-06T11:27:48.571Z,100.00
2022-10-06T11:30:18.218Z,100.00
2022-10-06T11:33:02.917Z,100.00
2022-10-06T11:35:36.657Z,100.00
2022-10-06T11:38:10.511Z,100.00
2022-10-06T11:40:41.348Z,100.00
2022-10-06T11:43:13.731Z,100.00
2022-10-06T11:45:49.201Z,100.00
2022-10-06T11:48:42.564Z,100.00
2022-10-06T11:51:28.186Z,100.00
2022-10-06T11:53:55.621Z,100.00
2022-10-06T11:56:21.913Z,100.00
2022-10-06T11:58:51.316Z,100.00
2022-10-06T12:01:44.033Z,100.00
2022-10-06T12:04:10.402Z,100.00
2022-10-06T12:06:42.993Z,100.00
2022-10-06T12:09:28.430Z,100.00
2022-10-06T12:11:55.990Z,100.00
2022-10-06T12:17:27.105Z,100.00
2022-10-06T12:19:53.467Z,100.00
2022-10-06T12:22:32.846Z,100.00
2022-10-06T12:25:21.295Z,97.89
2022-10-06T12:27:55.094Z,100.00
2022-10-06T12:30:21.362Z,100.00
2022-10-06T12:32:54.923Z,100.00
2022-10-06T12:35:42.559Z,100.00
2022-10-06T12:38:28.176Z,100.00
2022-10-06T12:40:55.443Z,100.00
2022-10-06T12:43:22.412Z,100.00
2022-10-06T12:46:07.853Z,100.00
2022-10-06T12:48:37.313Z,100.00
2022-10-06T12:51:12.681Z,100.00
2022-10-06T12:53:56.001Z,95.78
2022-10-06T12:56:28.273Z,87.10
2022-10-06T12:58:55.790Z,76.50
2022-10-06T13:01:22.965Z,75.61
2022-10-06T13:03:50.129Z,66.90
2022-10-06T13:06:21.059Z,74.39
2022-10-06T13:09:04.646Z,88.71
2022-10-06T13:11:31.031Z,88.24
2022-10-06T13:13:59.136Z,95.55
2022-10-06T13:16:30.871Z,100.00
2022-10-06T13:18:58.667Z,100.00
2022-10-06T13:21:25.945Z,100.00
2022-10-06T13:23:52.359Z,100.00
2022-10-06T13:26:26.661Z,100.00
2022-10-06T13:28:54.266Z,100.00
2022-10-06T13:31:31.476Z,100.00
2022-10-06T13:34:00.566Z,100.00
2022-10-06T13:36:28.063Z,100.00
2022-10-06T13:38:54.381Z,100.00
2022-10-06T13:41:37.994Z,100.00
2022-10-06T13:44:21.160Z,100.00
2022-10-06T13:46:49.390Z,100.00
2022-10-06T13:49:29.573Z,100.00
2022-10-06T13:51:57.069Z,100.00
2022-10-06T13:54:23.360Z,100.00
2022-10-06T13:56:49.652Z,100.00
2022-10-06T13:59:28.090Z,100.00
2022-10-06T14:01:55.322Z,100.00
2022-10-06T14:04:22.525Z,100.00
2022-10-06T14:07:00.512Z,100.00
2022-10-06T14:09:29.427Z,100.00
2022-10-06T14:12:02.617Z,100.00
2022-10-06T14:14:29.116Z,100.00
2022-10-06T14:16:55.635Z,100.00
2022-10-06T14:19:38.924Z,100.00
2022-10-06T14:22:05.889Z,100.00
2022-10-06T14:24:34.268Z,100.00
2022-10-06T14:27:01.936Z,100.00
2022-10-06T14:29:28.307Z,100.00
2022-10-06T14:31:54.594Z,100.00
2022-10-06T14:34:21.762Z,100.00
2022-10-06T14:36:51.383Z,100.00
2022-10-06T14:39:18.250Z,100.00
2022-10-06T14:41:45.443Z,100.00
2022-10-06T14:44:13.062Z,100.00
2022-10-06T14:46:41.188Z,100.00
2022-10-06T14:49:08.632Z,100.00
2022-10-06T14:51:37.100Z,100.00
2022-10-06T14:54:04.845Z,100.00
2022-10-06T14:56:32.273Z,100.00
2022-10-06T14:59:00.559Z,100.00
2022-10-06T15:01:28.187Z,100.00
2022-10-06T15:04:03.091Z,100.00
2022-10-06T15:06:48.151Z,100.00
2022-10-06T15:09:14.800Z,100.00
2022-10-06T15:11:41.901Z,100.00
2022-10-06T15:14:11.597Z,100.00
2022-10-06T15:16:40.721Z,100.00
2022-10-06T15:19:07.039Z,100.00
2022-10-06T15:21:34.430Z,100.00
2022-10-06T15:24:02.273Z,100.00
2022-10-06T15:26:47.080Z,100.00
2022-10-06T15:29:13.752Z,100.00
2022-10-06T15:31:44.224Z,100.00
2022-10-06T15:34:14.558Z,100.00
2022-10-06T15:36:42.232Z,100.00
2022-10-06T15:39:12.831Z,100.00
2022-10-06T15:41:40.209Z,100.00
2022-10-06T15:44:08.604Z,100.00
2022-10-06T15:46:35.190Z,100.00
2022-10-06T15:49:02.744Z,100.00
2022-10-06T15:51:34.813Z,100.00
2022-10-06T15:54:01.086Z,100.00
2022-10-06T15:56:28.361Z,100.00
2022-10-06T15:58:55.071Z,100.00
2022-10-06T16:01:25.677Z,100.00
2022-10-06T16:04:11.808Z,100.00
2022-10-06T16:06:58.640Z,100.00
2022-10-06T16:12:32.737Z,100.00
2022-10-06T16:14:59.047Z,100.00
2022-10-06T16:17:25.324Z,100.00
2022-10-06T16:19:51.629Z,100.00
2022-10-06T16:22:19.183Z,100.00
2022-10-06T16:24:45.762Z,100.00
2022-10-06T16:27:12.981Z,100.00
2022-10-06T16:29:39.256Z,100.00
2022-10-06T16:32:05.561Z,100.00
2022-10-06T16:34:32.073Z,100.00
2022-10-06T16:36:58.521Z,100.00
2022-10-06T16:39:24.894Z,100.00
2022-10-06T16:41:51.400Z,100.00
2022-10-06T16:44:18.141Z,100.00
2022-10-06T16:46:44.943Z,100.00
2022-10-06T16:49:11.622Z,100.00
2022-10-06T16:51:39.792Z,100.00
2022-10-06T16:54:07.538Z,100.00
2022-10-06T16:56:35.212Z,100.00
2022-10-06T16:59:04.685Z,100.00
2022-10-06T17:01:32.294Z,100.00
2022-10-06T17:04:06.662Z,100.00
2022-10-06T17:06:39.139Z,100.00
2022-10-06T17:09:08.176Z,100.00
2022-10-06T17:11:35.199Z,100.00
2022-10-06T17:14:01.922Z,100.00
2022-10-06T17:16:29.823Z,100.00
2022-10-06T17:18:56.952Z,100.00
2022-10-06T17:21:44.890Z,100.00
2022-10-06T17:24:10.586Z,100.00
2022-10-06T17:26:38.133Z,100.00
2022-10-06T17:29:05.873Z,100.00
2022-10-06T17:31:35.264Z,100.00
2022-10-06T17:34:05.701Z,100.00
2022-10-06T17:36:32.165Z,100.00
2022-10-06T17:39:03.350Z,100.00
2022-10-06T17:41:31.026Z,100.00
2022-10-06T17:43:59.007Z,100.00
2022-10-06T17:46:26.353Z,100.00
2022-10-06T17:48:53.831Z,100.00
2022-10-06T17:51:24.971Z,100.00
2022-10-06T17:53:52.707Z,100.00
2022-10-06T17:56:21.458Z,100.00
2022-10-06T17:58:54.583Z,100.00
2022-10-06T18:01:21.909Z,100.00
2022-10-06T18:03:48.449Z,100.00
2022-10-06T18:06:17.011Z,100.00
2022-10-06T18:08:44.603Z,100.00
2022-10-06T18:11:30.784Z,100.00
2022-10-06T18:13:58.299Z,100.00
2022-10-06T18:16:26.068Z,100.00
2022-10-06T18:18:55.727Z,100.00
2022-10-06T18:21:23.964Z,100.00
2022-10-06T18:23:50.451Z,100.00
2022-10-06T18:26:17.728Z,100.00
2022-10-06T18:28:48.139Z,100.00
2022-10-06T18:31:15.329Z,100.00
2022-10-06T18:36:33.051Z,100.00
2022-10-06T18:39:00.080Z,100.00
2022-10-06T18:41:31.239Z,100.00
2022-10-06T18:43:58.513Z,100.00
2022-10-06T18:46:43.852Z,100.00
2022-10-06T18:49:12.265Z,100.00
2022-10-06T18:51:39.843Z,100.00
2022-10-06T18:54:08.217Z,100.00
2022-10-06T18:56:36.376Z,100.00
2022-10-06T18:59:05.018Z,100.00
2022-10-06T19:01:31.587Z,100.00
2022-10-06T19:03:58.972Z,100.00
2022-10-06T19:06:26.641Z,100.00
2022-10-06T19:08:54.099Z,100.00
2022-10-06T19:11:39.223Z,100.00
2022-10-06T19:14:06.280Z,100.00
2022-10-06T19:16:32.592Z,100.00
2022-10-06T19:18:59.024Z,100.00
2022-10-06T19:21:25.276Z,100.00
2022-10-06T19:23:51.549Z,100.00
2022-10-06T19:26:18.668Z,100.00
2022-10-06T19:28:44.924Z,100.00
2022-10-06T19:31:12.504Z,100.00
2022-10-06T19:33:39.302Z,100.00
2022-10-06T19:36:06.826Z,100.00
2022-10-06T19:38:36.620Z,100.00
2022-10-06T19:41:22.508Z,100.00
2022-10-06T19:43:49.476Z,100.00
2022-10-06T19:46:15.828Z,100.00
2022-10-06T19:48:42.243Z,100.00
2022-10-06T19:51:15.532Z,100.00
2022-10-06T19:53:49.622Z,100.00
2022-10-06T19:56:17.207Z,100.00
2022-10-06T19:58:43.522Z,100.00
2022-10-06T20:01:09.884Z,100.00
2022-10-06T20:03:39.239Z,100.00
2022-10-06T20:06:10.298Z,100.00
2022-10-06T20:08:37.096Z,100.00
2022-10-06T20:11:10.599Z,100.00
2022-10-06T20:13:38.313Z,100.00
2022-10-06T20:16:11.045Z,100.00
2022-10-06T20:18:39.584Z,100.00
2022-10-06T20:21:16.412Z,100.00
2022-10-06T20:23:49.674Z,100.00
2022-10-06T20:26:18.100Z,100.00
2022-10-06T20:28:45.298Z,100.00
2022-10-06T20:31:19.174Z,100.00
2022-10-06T20:33:45.683Z,100.00
2022-10-06T20:36:13.064Z,100.00
2022-10-06T20:38:58.957Z,100.00
2022-10-06T20:41:25.770Z,100.00
2022-10-06T20:43:53.922Z,100.00
2022-10-06T20:46:21.378Z,100.00
2022-10-06T20:48:50.083Z,100.00
2022-10-06T20:51:16.909Z,100.00
2022-10-06T20:53:43.174Z,100.00
2022-10-06T20:56:09.952Z,100.00
2022-10-06T20:58:36.340Z,100.00
2022-10-06T21:01:06.049Z,100.00
2022-10-06T21:03:33.137Z,100.00
2022-10-06T21:05:59.449Z,100.00
2022-10-06T21:08:25.787Z,100.00
2022-10-06T21:10:57.676Z,100.00
2022-10-06T21:13:24.074Z,100.00
2022-10-06T21:15:50.511Z,100.00
2022-10-06T21:18:17.502Z,100.00
2022-10-06T21:20:45.333Z,100.00
2022-10-06T21:23:13.314Z,100.00
2022-10-06T21:25:39.670Z,100.00
2022-10-06T21:28:06.160Z,100.00
2022-10-06T21:30:33.274Z,100.00
2022-10-06T21:33:00.344Z,100.00
2022-10-06T21:35:26.990Z,100.00
2022-10-06T21:37:53.259Z,100.00
2022-10-06T21:40:19.582Z,100.00
2022-10-06T21:42:45.912Z,100.00
2022-10-06T21:45:12.229Z,100.00
2022-10-06T21:47:38.517Z,100.00
2022-10-06T21:50:04.968Z,100.00
2022-10-06T21:52:31.310Z,100.00
2022-10-06T21:54:57.650Z,100.00
2022-10-06T21:57:23.951Z,100.00
2022-10-06T21:59:50.235Z,100.00
2022-10-06T22:02:16.541Z,100.00
2022-10-06T22:04:42.841Z,100.00
2022-10-06T22:07:09.249Z,100.00
2022-10-06T22:09:35.525Z,100.00
2022-10-06T22:12:01.889Z,100.00
2022-10-06T22:14:28.195Z,100.00
2022-10-06T22:16:54.530Z,100.00
2022-10-06T22:19:20.921Z,100.00
2022-10-06T22:21:48.452Z,100.00
2022-10-06T22:24:18.228Z,100.00
2022-10-06T22:26:44.960Z,100.00
2022-10-06T22:29:12.687Z,100.00
2022-10-06T22:31:40.043Z,100.00
2022-10-06T22:34:07.462Z,100.00
2022-10-06T22:36:34.297Z,100.00
2022-10-06T22:39:00.881Z,100.00
2022-10-06T22:41:27.398Z,100.00
2022-10-06T22:43:57.326Z,100.00
2022-10-06T22:46:28.089Z,100.00
2022-10-06T22:48:54.500Z,100.00
2022-10-06T22:51:21.303Z,100.00
2022-10-06T22:53:55.210Z,100.00
2022-10-06T22:56:23.944Z,100.00
2022-10-06T22:58:50.224Z,100.00
2022-10-06T23:01:18.455Z,100.00
2022-10-06T23:03:45.318Z,100.00
2022-10-06T23:06:15.708Z,100.00
2022-10-06T23:08:42.137Z,100.00
2022-10-06T23:11:10.099Z,100.00
2022-10-06T23:13:36.426Z,100.00
2022-10-06T23:16:08.049Z,100.00
2022-10-06T23:18:35.634Z,100.00
2022-10-06T23:21:03.256Z,100.00
2022-10-06T23:23:29.714Z,100.00
2022-10-06T23:25:56.034Z,100.00
2022-10-06T23:28:22.366Z,100.00
2022-10-06T23:30:48.704Z,100.00
2022-10-06T23:33:14.993Z,100.00
2022-10-06T23:35:41.280Z,100.00
2022-10-06T23:38:10.541Z,100.00
2022-10-06T23:40:37.061Z,100.00
2022-10-06T23:43:03.361Z,100.00
2022-10-06T23:45:29.705Z,100.00
2022-10-06T23:47:56.049Z,100.00
2022-10-06T23:50:22.320Z,100.00
2022-10-06T23:52:48.643Z,100.00
2022-10-06T23:55:14.945Z,100.00
2022-10-06T23:57:41.546Z,100.00
